Airfield :
LOGIN :

Register | Disclaimer

   EN    FR    IT 

 










Legend :    VFR   Marginal VFR   IFR   Intensive IFR   Very Intensive IFR
Visi :
Ceiling :
>= 8 km
>= 3000ft
5 to 8 km
1000 to 3000 ft
1500m to 5 km
500 to 1000 ft
800 to 1500m
200 to 500 ft
< 800m
< 200 ft
Symbols :   Thunderstorms  Fog  Heavy snow  Heavy precipitations  Wind > 20 kt
SIGMETs :     Misc.  Thunderstorms  Icing  Turbulence  Mountain Waves  Volcanic Ashes






- Airport Elevation : 132 ft


EGXE - RAF Leeming

CURRENT METAR :
  • 020850Z 36008KT 9999 BKN005 BKN008 11/10 Q1010 RERA REDZ TEMPO 4000 -DZ RMK YLO1 TEMPO YLO1

EXPIRED METARs :
  • 020819Z 35009KT 5000 RADZ BKN004 OVC008 11/10 Q1010 TEMPO 4000 DZ RMK YLO2 TEMPO YLO2
  • 020750Z 33007KT 4500 -DZ BKN004 OVC008 10/10 Q1009 RMK YLO2
  • 020650Z 35004KT 3800 -RA FEW003 OVC005 10/10 Q1009 RMK YLO1
  • 020550Z AUTO 33005KT 3700 DZ BKN007/// SCT018/// 10/09 Q1008

TAF TAF EGXE
Valid from the 02 at 09:00 until the 02 at 18:00 UTC


020728Z 0209/0218 35005KT 9999 FEW008 OVC018
TEMPO 0209/0210 3000 DZ SCT004
BECMG 0210/0213 FEW018 BKN025
TEMPO 0210/0213 BKN012
TEMPO 0213/0218 SCT018



MET'MAP, your aeronautical weather chart ! - Copyright ORBIFLY December 2007 - Disclaimer

ORBIFLY MET'MAP TEAM :

Programming & Development : Alexandra Zaïnal
Concept & original design : Baudouin d'Aumeries
Assistance for programming : Marc-Olivier Méhu
Technical & hardware support : Manuel Goepfert

Contact : metmap@orbifly.com




SOURCES & CREDITS :

   NOAA